Time;durP1;ratioP1;P1;durP2;ratioP2;P2;SDS_P1;SDS_P2;PMS_P1;PMS_P2;Temp;Humidity;BMP_temperature;BMP_pressure;BME280_temperature;BME280_humidity;BME280_pressure;Samples;Min_cycle;Max_cycle;Signal;HPM_P1;HPM_P2
2021/12/26 00:01:05;;;;;;;8.05;5.50;;;1.60;71.30;;;;;;4951156;29;20232;-87
2021/12/26 00:03:33;;;;;;;8.07;4.13;;;1.80;71.70;;;;;;4949054;29;20181;-86
2021/12/26 00:06:05;;;;;;;14.48;7.38;;;1.80;71.60;;;;;;4937621;29;20654;-87
2021/12/26 00:08:32;;;;;;;21.42;7.18;;;1.90;71.50;;;;;;4939493;29;20584;-87
2021/12/26 00:10:57;;;;;;;8.13;4.82;;;1.90;71.20;;;;;;4940320;29;20763;-87
2021/12/26 00:13:23;;;;;;;9.93;4.97;;;1.90;71.30;;;;;;4938793;29;20193;-86
2021/12/26 00:15:49;;;;;;;8.13;5.23;;;2.00;71.30;;;;;;4941689;29;20425;-86
2021/12/26 00:18:15;;;;;;;8.00;5.20;;;2.10;71.40;;;;;;4942382;29;20429;-87
2021/12/26 00:20:41;;;;;;;5.70;3.97;;;2.10;71.20;;;;;;4938898;29;20465;-87
2021/12/26 00:23:07;;;;;;;12.77;4.88;;;2.10;71.30;;;;;;4937208;29;20209;-86
2021/12/26 00:25:33;;;;;;;14.80;4.80;;;2.10;71.10;;;;;;4935516;29;20181;-86
2021/12/26 00:28:00;;;;;;;6.30;4.03;;;1.90;71.10;;;;;;4936015;29;20228;-86
2021/12/26 00:30:26;;;;;;;10.45;4.82;;;2.00;71.30;;;;;;4938113;29;20227;-86
2021/12/26 00:32:52;;;;;;;7.20;4.93;;;2.20;71.40;;;;;;4937461;29;20185;-87
2021/12/26 00:35:20;;;;;;;5.88;4.78;;;2.30;71.30;;;;;;4936951;29;20203;-86
2021/12/26 00:37:47;;;;;;;6.93;5.13;;;2.30;71.00;;;;;;4937199;29;20661;-86
2021/12/26 00:40:15;;;;;;;7.32;5.63;;;2.10;70.80;;;;;;4935999;29;20205;-87
2021/12/26 00:42:41;;;;;;;9.25;4.88;;;2.10;71.20;;;;;;4936651;29;20224;-87
2021/12/26 00:45:08;;;;;;;10.00;6.25;;;2.00;71.40;;;;;;4937301;29;20235;-86
2021/12/26 00:47:34;;;;;;;6.07;3.53;;;2.10;71.80;;;;;;4948613;29;20189;-87
2021/12/26 00:50:02;;;;;;;7.40;4.60;;;2.00;71.50;;;;;;4937120;29;20204;-86
2021/12/26 00:52:28;;;;;;;10.90;5.53;;;2.00;71.80;;;;;;4936968;29;20181;-86
2021/12/26 00:54:54;;;;;;;10.70;5.47;;;2.10;72.10;;;;;;4936093;29;20185;-86
2021/12/26 00:57:20;;;;;;;9.83;5.40;;;2.10;72.00;;;;;;4937549;29;20183;-86
2021/12/26 00:59:47;;;;;;;13.60;5.17;;;2.10;71.80;;;;;;4947464;29;20487;-86
2021/12/26 01:02:13;;;;;;;6.55;4.70;;;2.00;72.00;;;;;;4948823;29;20477;-87
2021/12/26 01:04:39;;;;;;;11.48;6.47;;;2.00;72.10;;;;;;4937324;29;20212;-86
2021/12/26 01:07:13;;;;;;;8.82;5.85;;;1.90;72.60;;;;;;4940900;29;20184;-86
2021/12/26 01:09:39;;;;;;;7.45;6.22;;;1.90;72.70;;;;;;4939458;29;20201;-87
2021/12/26 01:12:12;;;;;;;9.07;6.50;;;1.90;72.80;;;;;;4939586;29;20220;-86
2021/12/26 01:14:46;;;;;;;7.53;5.20;;;1.80;73.10;;;;;;4939431;29;20413;-86
2021/12/26 01:17:15;;;;;;;8.48;5.85;;;1.70;73.30;;;;;;4940548;29;20186;-85
2021/12/26 01:19:46;;;;;;;8.82;6.15;;;1.60;73.90;;;;;;4940454;29;20560;-87
2021/12/26 01:22:12;;;;;;;16.60;6.82;;;1.50;74.50;;;;;;4938994;29;20204;-86
2021/12/26 01:24:39;;;;;;;9.73;6.70;;;1.70;75.00;;;;;;4938665;29;20228;-84
2021/12/26 01:27:05;;;;;;;11.77;6.55;;;1.80;74.80;;;;;;4940197;29;20181;-86
2021/12/26 01:29:31;;;;;;;17.08;6.97;;;1.80;74.70;;;;;;4938945;29;20628;-84
2021/12/26 01:31:57;;;;;;;13.27;6.87;;;1.90;74.50;;;;;;4939308;29;20213;-85
2021/12/26 01:34:23;;;;;;;13.73;7.20;;;1.70;74.50;;;;;;4940492;29;20480;-85
2021/12/26 01:36:49;;;;;;;8.13;5.77;;;1.70;74.90;;;;;;4945354;29;20181;-84
2021/12/26 01:39:15;;;;;;;11.40;5.90;;;1.70;75.00;;;;;;4942098;29;20501;-86
2021/12/26 01:41:42;;;;;;;13.90;6.47;;;1.80;75.10;;;;;;4942027;29;20467;-85
2021/12/26 01:44:11;;;;;;;16.55;6.85;;;2.00;75.10;;;;;;4941938;29;20186;-86
2021/12/26 01:46:38;;;;;;;15.82;6.82;;;1.90;74.70;;;;;;4942789;29;20263;-86
2021/12/26 01:49:11;;;;;;;10.32;6.07;;;1.80;74.70;;;;;;4943063;29;20205;-86
2021/12/26 01:51:37;;;;;;;14.43;6.00;;;1.90;75.20;;;;;;4941841;29;20531;-86
2021/12/26 01:54:08;;;;;;;10.90;6.72;;;1.70;74.90;;;;;;4938798;29;20189;-86
2021/12/26 01:56:34;;;;;;;10.68;5.70;;;1.70;75.10;;;;;;4942345;29;20289;-86
2021/12/26 01:59:00;;;;;;;17.17;5.53;;;1.60;75.20;;;;;;4953746;29;20189;-86
2021/12/26 02:01:26;;;;;;;12.32;6.40;;;1.70;75.60;;;;;;4941023;29;20712;-85
2021/12/26 02:03:54;;;;;;;12.77;6.95;;;1.60;75.40;;;;;;4938605;29;20177;-85
2021/12/26 02:06:21;;;;;;;11.98;6.05;;;1.50;75.80;;;;;;4939384;29;20276;-86
2021/12/26 02:08:47;;;;;;;9.23;6.43;;;1.50;76.30;;;;;;4939896;29;20736;-86
2021/12/26 02:11:13;;;;;;;12.38;7.32;;;1.30;76.60;;;;;;4942383;29;20529;-86
2021/12/26 02:13:39;;;;;;;12.00;7.20;;;1.40;77.10;;;;;;4956560;29;20193;-85
2021/12/26 02:16:09;;;;;;;13.40;6.73;;;1.50;77.00;;;;;;4945925;29;20524;-85
2021/12/26 02:18:35;;;;;;;12.80;6.65;;;1.50;77.00;;;;;;4938720;29;20220;-86
2021/12/26 02:24:23;;;;;;;12.93;7.20;;;1.70;76.90;;;;;;4940029;29;20405;-85
2021/12/26 02:29:08;;;;;;;13.52;6.78;;;1.70;76.70;;;;;;4941248;29;20212;-86
2021/12/26 02:31:34;;;;;;;9.37;6.33;;;1.70;76.40;;;;;;4939179;29;20725;-86
2021/12/26 02:34:00;;;;;;;11.37;6.80;;;1.60;76.10;;;;;;4942285;29;20204;-86
2021/12/26 02:36:26;;;;;;;17.27;6.35;;;1.50;76.50;;;;;;4951325;29;20444;-85
2021/12/26 02:38:51;;;;;;;14.67;6.93;;;1.70;76.50;;;;;;4941913;29;20264;-86
2021/12/26 02:41:17;;;;;;;7.30;6.40;;;1.80;76.30;;;;;;4938739;29;20308;-86
2021/12/26 02:43:43;;;;;;;7.90;5.53;;;1.80;76.00;;;;;;4940025;29;20421;-86
2021/12/26 02:46:09;;;;;;;11.60;7.13;;;1.80;75.80;;;;;;4949963;29;20426;-86
2021/12/26 02:48:36;;;;;;;14.17;7.47;;;1.90;75.80;;;;;;4942235;29;20200;-85
2021/12/26 02:51:03;;;;;;;17.33;7.13;;;1.90;75.70;;;;;;4941627;29;20204;-85
2021/12/26 02:53:29;;;;;;;11.10;6.10;;;1.70;75.70;;;;;;4938323;29;20603;-85
2021/12/26 02:55:57;;;;;;;13.07;6.55;;;1.70;75.90;;;;;;4938485;29;20670;-85
2021/12/26 02:58:24;;;;;;;9.88;6.03;;;1.80;76.80;;;;;;4940778;29;20276;-85
2021/12/26 03:01:06;;;;;;;11.82;6.97;;;1.90;76.10;;;;;;4953437;29;20221;-85
2021/12/26 03:03:32;;;;;;;12.95;7.65;;;1.90;76.40;;;;;;4920368;29;20502;-85
2021/12/26 03:06:08;;;;;;;11.43;6.70;;;1.80;76.40;;;;;;4922305;29;20174;-86
2021/12/26 03:08:34;;;;;;;15.80;7.80;;;1.80;76.70;;;;;;4922209;29;20414;-85
2021/12/26 03:11:00;;;;;;;13.95;7.13;;;2.00;77.30;;;;;;4925539;29;20208;-85
2021/12/26 03:13:26;;;;;;;14.07;6.78;;;1.90;76.20;;;;;;4922956;29;20257;-85
2021/12/26 03:15:52;;;;;;;22.67;7.85;;;1.90;76.50;;;;;;4925480;29;20181;-86
2021/12/26 03:18:18;;;;;;;13.73;7.50;;;2.10;76.50;;;;;;4924053;29;20174;-86
2021/12/26 03:20:47;;;;;;;13.33;7.53;;;2.10;76.20;;;;;;4922133;29;21009;-85
2021/12/26 03:23:16;;;;;;;13.05;7.35;;;2.00;75.90;;;;;;4922590;29;20450;-85
2021/12/26 03:25:42;;;;;;;13.52;7.82;;;1.70;76.30;;;;;;4926833;29;20710;-85
2021/12/26 03:28:09;;;;;;;18.52;8.70;;;1.70;77.00;;;;;;4925943;29;20182;-85
2021/12/26 03:30:36;;;;;;;19.27;7.25;;;1.70;77.30;;;;;;4942771;29;20197;-85
2021/12/26 03:33:04;;;;;;;11.30;7.78;;;1.70;77.60;;;;;;4945382;29;20192;-85
2021/12/26 03:35:30;;;;;;;18.33;8.88;;;1.80;77.80;;;;;;4947505;29;20621;-85
2021/12/26 03:37:58;;;;;;;17.67;7.57;;;2.10;77.80;;;;;;4948514;29;20181;-85
2021/12/26 03:40:25;;;;;;;15.93;8.25;;;2.10;77.50;;;;;;4949576;29;20217;-85
2021/12/26 03:42:54;;;;;;;11.88;7.57;;;2.00;77.30;;;;;;4944906;29;20197;-85
2021/12/26 03:45:21;;;;;;;18.88;8.50;;;1.70;77.60;;;;;;4941477;29;20267;-85
2021/12/26 03:47:49;;;;;;;14.48;7.85;;;1.80;78.00;;;;;;4946832;29;20181;-86
2021/12/26 03:50:18;;;;;;;25.58;8.80;;;1.70;78.10;;;;;;4946947;29;20220;-86
2021/12/26 03:52:44;;;;;;;21.73;8.35;;;1.80;78.30;;;;;;4941780;29;20681;-86
2021/12/26 03:55:09;;;;;;;14.93;8.30;;;1.80;78.40;;;;;;4940962;29;20188;-86
2021/12/26 03:57:35;;;;;;;19.97;7.97;;;1.80;78.40;;;;;;4950725;29;20989;-86
2021/12/26 04:00:02;;;;;;;15.77;9.00;;;1.90;78.40;;;;;;4936735;29;20464;-85
2021/12/26 04:02:28;;;;;;;16.13;7.78;;;1.80;78.30;;;;;;4938120;29;20209;-85
2021/12/26 04:04:53;;;;;;;15.03;8.33;;;1.80;78.30;;;;;;4938212;29;20189;-85
2021/12/26 04:07:19;;;;;;;18.60;8.40;;;1.80;78.40;;;;;;4942968;29;20264;-85
2021/12/26 04:09:45;;;;;;;17.47;7.53;;;1.70;78.70;;;;;;4954890;29;20208;-86
2021/12/26 04:12:11;;;;;;;13.07;7.83;;;1.70;78.90;;;;;;4943909;29;20425;-85
2021/12/26 04:14:37;;;;;;;19.73;10.60;;;1.80;79.00;;;;;;4936420;29;20528;-85
2021/12/26 04:17:03;;;;;;;15.07;8.00;;;1.90;78.80;;;;;;4936231;29;20417;-85
2021/12/26 04:19:28;;;;;;;15.27;9.52;;;1.90;78.60;;;;;;4937897;29;20294;-86
2021/12/26 04:21:54;;;;;;;14.20;7.80;;;1.90;78.40;;;;;;4940266;29;20230;-85
2021/12/26 04:24:21;;;;;;;16.83;8.20;;;1.80;78.30;;;;;;4935673;29;20180;-85
2021/12/26 04:26:47;;;;;;;20.83;9.02;;;1.70;78.50;;;;;;4939256;29;20489;-85
2021/12/26 04:29:13;;;;;;;15.10;8.30;;;1.60;79.00;;;;;;4936746;29;20347;-86
2021/12/26 04:31:39;;;;;;;15.00;7.73;;;1.50;79.30;;;;;;4936237;29;20437;-85
2021/12/26 04:34:04;;;;;;;17.07;8.50;;;1.50;79.40;;;;;;4935631;29;20181;-86
2021/12/26 04:36:30;;;;;;;12.80;7.60;;;1.70;79.50;;;;;;4936802;29;20216;-85
2021/12/26 04:38:56;;;;;;;17.83;8.63;;;1.80;79.30;;;;;;4938838;29;20420;-85
2021/12/26 04:41:22;;;;;;;22.00;8.25;;;1.90;79.10;;;;;;4943867;29;20461;-85
2021/12/26 04:43:48;;;;;;;15.17;7.73;;;2.00;78.90;;;;;;4948596;29;20193;-85
2021/12/26 04:46:14;;;;;;;15.83;8.63;;;2.00;78.40;;;;;;4953223;29;20425;-85
2021/12/26 04:48:43;;;;;;;13.88;7.43;;;2.00;78.30;;;;;;4950274;29;20437;-84
2021/12/26 04:51:09;;;;;;;18.48;8.40;;;1.90;78.40;;;;;;4944404;29;20233;-86
2021/12/26 04:53:38;;;;;;;18.63;9.10;;;1.90;78.40;;;;;;4944154;29;20897;-85
2021/12/26 04:56:04;;;;;;;17.27;9.18;;;2.00;78.50;;;;;;4940601;29;20252;-86
2021/12/26 04:58:30;;;;;;;18.13;8.50;;;2.00;78.50;;;;;;4945468;29;20195;-86
2021/12/26 05:00:56;;;;;;;17.08;8.60;;;2.00;78.50;;;;;;4956227;29;20229;-86
2021/12/26 05:03:22;;;;;;;12.37;7.57;;;2.10;78.70;;;;;;4944990;29;20189;-86
2021/12/26 05:05:48;;;;;;;19.15;9.00;;;1.90;78.30;;;;;;4945334;29;20417;-86
2021/12/26 05:08:15;;;;;;;14.97;8.20;;;1.70;79.20;;;;;;4939892;29;20224;-85
2021/12/26 05:10:41;;;;;;;17.42;8.60;;;1.70;80.30;;;;;;4939531;29;20444;-86
2021/12/26 05:13:07;;;;;;;22.00;10.18;;;1.90;79.80;;;;;;4940177;29;20195;-86
2021/12/26 05:15:32;;;;;;;21.13;10.87;;;1.90;79.30;;;;;;4940799;29;20252;-85
2021/12/26 05:17:59;;;;;;;18.10;8.73;;;1.70;79.60;;;;;;4944816;29;20413;-85
2021/12/26 05:20:26;;;;;;;18.55;9.20;;;1.80;79.80;;;;;;4949786;29;20448;-85
2021/12/26 05:22:54;;;;;;;15.40;7.85;;;2.00;79.80;;;;;;4942939;29;20232;-85
2021/12/26 05:25:21;;;;;;;14.38;8.23;;;2.00;79.60;;;;;;4939268;29;20181;-85
2021/12/26 05:27:47;;;;;;;19.30;9.80;;;1.90;79.50;;;;;;4939763;29;20185;-85
2021/12/26 05:30:15;;;;;;;21.38;9.90;;;2.20;79.80;;;;;;4939112;29;20205;-85
2021/12/26 05:32:42;;;;;;;15.07;7.90;;;2.30;79.40;;;;;;4938499;29;20181;-85
2021/12/26 05:35:09;;;;;;;18.73;9.82;;;2.30;78.70;;;;;;4939131;29;20232;-85
2021/12/26 05:37:36;;;;;;;15.60;9.57;;;2.20;78.30;;;;;;4938994;29;20217;-85
2021/12/26 05:40:03;;;;;;;20.23;8.60;;;2.30;78.40;;;;;;4939081;29;20701;-85
2021/12/26 05:42:30;;;;;;;12.55;8.27;;;2.20;79.00;;;;;;4938823;29;20213;-86
2021/12/26 05:44:56;;;;;;;15.00;8.60;;;2.00;78.20;;;;;;4940509;29;20189;-85
2021/12/26 05:47:22;;;;;;;15.07;8.77;;;2.10;78.60;;;;;;4939140;29;20185;-85
2021/12/26 05:49:48;;;;;;;14.40;8.60;;;2.20;78.60;;;;;;4939747;29;20953;-85
2021/12/26 05:52:14;;;;;;;20.40;9.93;;;2.20;78.10;;;;;;4951751;29;20413;-85
2021/12/26 05:54:43;;;;;;;17.38;9.60;;;2.20;77.90;;;;;;4931836;29;20207;-85
2021/12/26 05:57:09;;;;;;;14.88;8.55;;;2.20;78.00;;;;;;4920711;29;20206;-85
2021/12/26 05:59:34;;;;;;;14.55;10.00;;;2.00;78.10;;;;;;4922476;29;20218;-85
2021/12/26 06:02:00;;;;;;;18.80;9.63;;;2.00;78.40;;;;;;4925240;29;20261;-85
2021/12/26 06:04:26;;;;;;;17.77;8.37;;;1.80;78.50;;;;;;4933274;29;20186;-86
2021/12/26 06:06:52;;;;;;;16.50;8.77;;;2.00;78.90;;;;;;4923917;29;20186;-85
2021/12/26 06:09:18;;;;;;;20.25;10.90;;;1.90;78.90;;;;;;4921612;29;20201;-85
2021/12/26 06:11:44;;;;;;;15.80;9.23;;;1.80;78.90;;;;;;4923470;29;20229;-86
2021/12/26 06:14:10;;;;;;;17.63;10.30;;;1.80;79.20;;;;;;4925340;29;20186;-86
2021/12/26 06:16:36;;;;;;;18.80;10.65;;;2.00;79.30;;;;;;4926653;29;20237;-85
2021/12/26 06:19:02;;;;;;;16.30;9.80;;;2.00;78.90;;;;;;4926579;29;20186;-86
2021/12/26 06:21:28;;;;;;;18.95;10.25;;;1.80;78.90;;;;;;4923146;29;20214;-85
2021/12/26 06:23:53;;;;;;;14.23;8.00;;;1.90;79.40;;;;;;4921871;29;20202;-85
2021/12/26 06:26:24;;;;;;;15.10;9.10;;;2.10;79.30;;;;;;4921016;29;20307;-85
2021/12/26 06:28:50;;;;;;;17.27;8.85;;;2.10;79.00;;;;;;4922429;29;20666;-85
2021/12/26 06:31:16;;;;;;;15.37;8.20;;;2.20;78.70;;;;;;4926685;29;20193;-86
2021/12/26 06:33:42;;;;;;;19.33;8.07;;;2.00;78.40;;;;;;4921450;29;20485;-86
2021/12/26 06:36:09;;;;;;;14.70;9.37;;;2.00;78.80;;;;;;4920885;29;20222;-85
2021/12/26 06:38:37;;;;;;;14.88;8.13;;;2.10;78.90;;;;;;4921292;29;20418;-85
2021/12/26 06:41:04;;;;;;;12.32;8.60;;;2.10;78.80;;;;;;4940229;29;20769;-85
2021/12/26 06:43:31;;;;;;;14.77;9.35;;;2.30;78.80;;;;;;4945633;29;20174;-84
2021/12/26 06:45:57;;;;;;;19.63;10.45;;;2.30;79.00;;;;;;4954707;29;20192;-85
2021/12/26 06:48:23;;;;;;;21.90;9.25;;;2.50;79.00;;;;;;4942725;29;20181;-86
2021/12/26 06:50:49;;;;;;;13.50;8.48;;;2.70;78.40;;;;;;4939454;29;20244;-86
2021/12/26 06:53:16;;;;;;;19.55;9.43;;;2.40;77.40;;;;;;4941279;29;20180;-84
2021/12/26 06:55:43;;;;;;;15.15;8.60;;;2.30;77.50;;;;;;4940666;29;20193;-85
2021/12/26 06:58:08;;;;;;;15.52;9.32;;;2.10;77.60;;;;;;4947506;29;20188;-85
2021/12/26 07:00:34;;;;;;;14.33;8.90;;;2.20;78.00;;;;;;4955591;29;20225;-85
2021/12/26 07:03:01;;;;;;;13.60;8.88;;;2.20;78.10;;;;;;4942674;29;20185;-84
2021/12/26 07:05:27;;;;;;;18.88;11.10;;;2.20;78.30;;;;;;4943955;29;20232;-86
2021/12/26 07:07:52;;;;;;;19.43;9.50;;;2.40;78.30;;;;;;4941760;29;20241;-86
2021/12/26 07:10:18;;;;;;;15.80;8.43;;;2.20;78.00;;;;;;4942725;29;20193;-85
2021/12/26 07:12:45;;;;;;;17.23;10.10;;;2.00;78.20;;;;;;4941649;29;20283;-85
2021/12/26 07:15:11;;;;;;;12.52;8.95;;;2.10;79.50;;;;;;4942203;29;20425;-86
2021/12/26 07:17:38;;;;;;;18.10;10.52;;;1.90;78.90;;;;;;4942485;29;20672;-85
2021/12/26 07:20:05;;;;;;;14.70;9.80;;;2.00;79.10;;;;;;4947231;29;20217;-85
2021/12/26 07:22:30;;;;;;;15.98;9.90;;;2.20;79.30;;;;;;4934069;29;20247;-85
2021/12/26 07:24:56;;;;;;;24.20;10.50;;;2.30;79.10;;;;;;4942328;29;20174;-85
2021/12/26 07:27:22;;;;;;;15.60;8.87;;;2.40;78.80;;;;;;4939773;29;20177;-85
2021/12/26 07:29:49;;;;;;;18.30;10.98;;;2.60;78.50;;;;;;4941160;29;20272;-85
2021/12/26 07:32:14;;;;;;;23.52;11.80;;;2.60;78.10;;;;;;4941841;29;20185;-86
2021/12/26 07:34:41;;;;;;;17.97;9.90;;;2.30;78.10;;;;;;4939710;29;20540;-86
2021/12/26 07:37:08;;;;;;;16.27;10.00;;;2.20;78.30;;;;;;4941542;29;20456;-86
2021/12/26 07:39:34;;;;;;;14.77;10.30;;;2.20;78.40;;;;;;4940827;29;20205;-86
2021/12/26 07:42:00;;;;;;;15.05;9.18;;;2.20;78.70;;;;;;4942028;29;20209;-86
2021/12/26 07:44:26;;;;;;;13.00;8.50;;;2.20;78.60;;;;;;4943472;29;20174;-87
2021/12/26 07:46:52;;;;;;;13.30;9.33;;;2.10;78.90;;;;;;4948224;29;20992;-87
2021/12/26 07:49:19;;;;;;;20.88;9.43;;;2.00;79.20;;;;;;4945667;29;20265;-87
2021/12/26 07:51:47;;;;;;;15.90;9.25;;;1.90;79.60;;;;;;4940477;29;20185;-87
2021/12/26 07:54:14;;;;;;;13.73;8.48;;;2.00;79.90;;;;;;4939721;29;20565;-86
2021/12/26 07:56:40;;;;;;;18.38;10.30;;;2.10;80.00;;;;;;4939495;29;20185;-86
2021/12/26 07:59:06;;;;;;;16.30;9.53;;;2.20;79.60;;;;;;4945553;29;20289;-86
2021/12/26 08:01:32;;;;;;;14.80;9.27;;;2.40;79.50;;;;;;4955248;29;20984;-86
2021/12/26 08:04:01;;;;;;;13.38;8.50;;;2.30;79.10;;;;;;4948646;29;20267;-87
2021/12/26 08:06:30;;;;;;;15.40;10.02;;;2.20;79.10;;;;;;4944189;29;20572;-87
2021/12/26 08:08:57;;;;;;;15.40;9.15;;;2.20;79.20;;;;;;4941502;29;20185;-86
2021/12/26 08:11:22;;;;;;;15.18;8.68;;;2.50;79.20;;;;;;4939968;29;20189;-86
2021/12/26 08:13:48;;;;;;;16.77;10.70;;;2.30;79.50;;;;;;4939852;29;20220;-86
2021/12/26 08:16:14;;;;;;;20.80;9.63;;;2.20;79.00;;;;;;4940915;29;20425;-86
2021/12/26 08:18:41;;;;;;;20.10;10.63;;;2.10;79.20;;;;;;4939087;29;20191;-86
2021/12/26 08:21:07;;;;;;;15.45;10.48;;;2.00;79.40;;;;;;4941494;29;20661;-86
2021/12/26 08:23:32;;;;;;;20.98;11.82;;;1.90;80.10;;;;;;4942389;29;20209;-86
2021/12/26 08:25:59;;;;;;;17.50;9.90;;;2.10;80.50;;;;;;4941130;29;20192;-86
2021/12/26 08:28:25;;;;;;;19.27;10.85;;;2.20;80.30;;;;;;4942275;29;20453;-86
2021/12/26 08:30:51;;;;;;;17.55;8.85;;;2.40;79.90;;;;;;4945407;29;20201;-86
2021/12/26 08:33:17;;;;;;;21.55;13.10;;;2.40;79.70;;;;;;4946243;29;20185;-86
2021/12/26 08:35:44;;;;;;;19.03;10.50;;;2.70;79.50;;;;;;4945916;29;20268;-86
2021/12/26 08:38:10;;;;;;;19.20;9.82;;;2.70;79.00;;;;;;4938307;29;20517;-86
2021/12/26 08:40:36;;;;;;;16.80;9.90;;;2.50;79.40;;;;;;4939633;29;20217;-86
2021/12/26 08:43:02;;;;;;;16.30;11.00;;;2.40;79.00;;;;;;4939165;29;20233;-86
2021/12/26 08:45:28;;;;;;;16.95;9.60;;;2.50;79.30;;;;;;4953117;29;20421;-86
2021/12/26 08:47:55;;;;;;;16.10;10.88;;;2.50;79.20;;;;;;4939348;29;20605;-87
2021/12/26 08:50:25;;;;;;;16.48;9.68;;;2.50;79.20;;;;;;4938832;29;20244;-87
2021/12/26 08:52:51;;;;;;;19.33;10.45;;;2.50;79.30;;;;;;4936926;29;20186;-87
2021/12/26 08:55:19;;;;;;;13.50;9.95;;;2.80;79.20;;;;;;4936538;29;20244;-88
2021/12/26 08:57:45;;;;;;;21.00;10.93;;;3.00;78.90;;;;;;4942112;29;20177;-85
2021/12/26 09:00:12;;;;;;;16.05;11.30;;;3.00;78.20;;;;;;4954439;29;20240;-86
2021/12/26 09:02:39;;;;;;;12.60;8.95;;;2.90;77.70;;;;;;4937252;29;20245;-86
2021/12/26 09:05:05;;;;;;;15.25;9.68;;;3.00;77.90;;;;;;4936008;29;20181;-86
2021/12/26 09:07:31;;;;;;;14.80;10.00;;;3.00;77.70;;;;;;4936901;29;20547;-86
2021/12/26 09:09:58;;;;;;;19.77;11.37;;;2.70;77.90;;;;;;4940865;29;20249;-86
2021/12/26 09:12:24;;;;;;;14.82;10.85;;;2.60;78.40;;;;;;4941722;29;20414;-86
2021/12/26 09:14:50;;;;;;;20.55;11.82;;;2.70;78.60;;;;;;4941861;29;20182;-87
2021/12/26 09:17:16;;;;;;;24.00;14.18;;;2.80;78.60;;;;;;4941489;29;20194;-86
2021/12/26 09:19:42;;;;;;;20.90;12.10;;;3.00;78.60;;;;;;4941854;29;20207;-86
2021/12/26 09:22:09;;;;;;;22.30;10.47;;;3.10;78.20;;;;;;4939319;29;20496;-86
2021/12/26 09:24:36;;;;;;;11.80;8.95;;;3.00;78.00;;;;;;4935834;29;20173;-86
2021/12/26 09:27:03;;;;;;;18.17;10.70;;;3.00;77.90;;;;;;4939531;29;20207;-86
2021/12/26 09:29:29;;;;;;;22.42;10.55;;;2.90;78.00;;;;;;4939498;29;20197;-86
2021/12/26 09:31:56;;;;;;;18.33;10.40;;;3.00;78.50;;;;;;4939308;29;20556;-86
2021/12/26 09:34:23;;;;;;;18.70;11.27;;;2.90;78.50;;;;;;4940621;29;20421;-87
2021/12/26 09:36:49;;;;;;;22.55;10.95;;;2.90;78.50;;;;;;4940646;29;20178;-86
2021/12/26 09:39:16;;;;;;;21.67;12.73;;;3.00;78.70;;;;;;4940306;29;20233;-86
2021/12/26 09:41:42;;;;;;;21.05;12.52;;;3.00;78.50;;;;;;4951243;29;20228;-87
2021/12/26 09:44:08;;;;;;;32.88;13.30;;;3.20;78.60;;;;;;4947195;29;20257;-86
2021/12/26 09:46:35;;;;;;;20.88;11.73;;;3.50;78.40;;;;;;4944716;29;20192;-86
2021/12/26 09:49:01;;;;;;;22.63;11.90;;;3.40;78.00;;;;;;4939997;29;20729;-87
2021/12/26 09:51:27;;;;;;;19.65;11.60;;;3.50;77.80;;;;;;4942499;29;20185;-87
2021/12/26 09:53:53;;;;;;;16.60;11.40;;;3.60;77.70;;;;;;4948821;29;20173;-88
2021/12/26 09:56:19;;;;;;;21.73;11.35;;;3.60;77.30;;;;;;4957503;29;20189;-86
2021/12/26 09:59:06;;;;;;;20.98;10.40;;;3.60;77.60;;;;;;4945400;29;20181;-87
2021/12/26 10:01:34;;;;;;;16.92;10.57;;;3.80;77.40;;;;;;4941254;29;20197;-86
2021/12/26 10:04:24;;;;;;;23.17;13.38;;;3.70;77.20;;;;;;4940181;29;20184;-86
2021/12/26 10:06:57;;;;;;;22.05;12.88;;;3.70;77.20;;;;;;4933711;29;20185;-86
2021/12/26 10:09:24;;;;;;;22.45;12.43;;;3.70;77.20;;;;;;4939830;29;20189;-86
2021/12/26 10:11:54;;;;;;;19.02;12.18;;;3.70;77.40;;;;;;4938378;29;20217;-86
2021/12/26 10:14:23;;;;;;;16.73;10.70;;;3.60;77.80;;;;;;4938344;29;20273;-87
2021/12/26 10:16:51;;;;;;;20.58;11.10;;;3.50;78.10;;;;;;4938380;29;20247;-87
2021/12/26 10:19:18;;;;;;;22.17;11.05;;;3.70;78.30;;;;;;4939661;29;20208;-87
2021/12/26 10:21:48;;;;;;;21.10;10.73;;;4.00;78.40;;;;;;4939496;29;20704;-86
2021/12/26 10:24:37;;;;;;;25.65;14.10;;;4.30;77.70;;;;;;4941176;29;20188;-88
2021/12/26 10:27:12;;;;;;;22.60;12.85;;;4.10;77.20;;;;;;4940013;29;20280;-87
2021/12/26 10:29:41;;;;;;;19.25;11.75;;;3.80;77.30;;;;;;4939159;29;20740;-88
2021/12/26 10:32:12;;;;;;;26.42;13.30;;;3.80;77.90;;;;;;4939941;29;20200;-87
2021/12/26 10:34:48;;;;;;;21.90;12.20;;;3.90;78.20;;;;;;4940153;29;20219;-88
2021/12/26 10:37:17;;;;;;;15.93;11.05;;;3.80;78.10;;;;;;4943409;29;20180;-87
2021/12/26 10:39:49;;;;;;;22.50;13.00;;;3.90;79.00;;;;;;4947235;29;20284;-86
2021/12/26 10:42:22;;;;;;;21.70;11.88;;;4.00;78.00;;;;;;4954239;29;20197;-87
2021/12/26 10:44:55;;;;;;;20.40;13.07;;;4.10;78.00;;;;;;4947240;29;20191;-87
2021/12/26 10:47:29;;;;;;;21.63;12.95;;;4.20;77.90;;;;;;4946278;29;20173;-88
2021/12/26 10:50:02;;;;;;;24.33;12.05;;;4.20;77.50;;;;;;4945784;29;20296;-89
2021/12/26 10:52:40;;;;;;;20.13;11.02;;;4.20;77.70;;;;;;4949042;29;20177;-87
2021/12/26 10:55:13;;;;;;;21.00;12.85;;;4.30;77.80;;;;;;4954315;29;20272;-88
2021/12/26 10:57:44;;;;;;;40.60;18.27;;;4.40;77.70;;;;;;4957285;29;20181;-86
2021/12/26 11:00:22;;;;;;;24.25;13.07;;;4.20;77.80;;;;;;4945051;29;20259;-87
2021/12/26 11:02:54;;;;;;;27.60;13.82;;;4.10;78.60;;;;;;4939330;29;20169;-88
2021/12/26 11:05:24;;;;;;;20.30;11.63;;;4.00;79.10;;;;;;4937729;29;20272;-88
2021/12/26 11:07:57;;;;;;;34.63;17.10;;;3.90;79.40;;;;;;4938984;29;20174;-88
2021/12/26 11:10:38;;;;;;;24.05;14.38;;;4.10;79.90;;;;;;4938793;29;20202;-89
2021/12/26 11:13:15;;;;;;;29.25;15.50;;;4.30;79.70;;;;;;4939140;29;20185;-88
2021/12/26 11:15:41;;;;;;;21.38;13.05;;;4.40;79.40;;;;;;4940466;29;20185;-89
2021/12/26 11:18:18;;;;;;;29.10;15.07;;;4.70;79.30;;;;;;4938120;29;20246;-87
2021/12/26 11:20:52;;;;;;;27.48;13.32;;;4.70;78.60;;;;;;4938361;29;20298;-88
2021/12/26 11:23:25;;;;;;;26.67;14.65;;;4.60;78.80;;;;;;4938696;29;20191;-88
2021/12/26 11:26:04;;;;;;;21.75;12.88;;;4.70;78.70;;;;;;4939733;29;20264;-88
2021/12/26 11:28:41;;;;;;;26.27;12.75;;;4.60;78.90;;;;;;4938036;29;20181;-88
2021/12/26 11:31:10;;;;;;;28.15;13.90;;;4.60;78.90;;;;;;4938695;29;20288;-88
2021/12/26 11:33:37;;;;;;;22.30;12.30;;;4.70;78.90;;;;;;4952144;29;20193;-88
2021/12/26 11:36:06;;;;;;;22.48;13.15;;;5.00;79.00;;;;;;4941327;29;20241;-88
2021/12/26 11:38:33;;;;;;;24.23;13.13;;;5.10;78.50;;;;;;4937461;29;20184;-87
2021/12/26 11:41:02;;;;;;;21.63;12.27;;;5.10;78.10;;;;;;4938001;29;20299;-88
2021/12/26 11:43:43;;;;;;;24.05;12.98;;;5.20;78.00;;;;;;4938170;29;20646;-88
2021/12/26 11:46:46;;;;;;;21.25;12.60;;;5.00;78.20;;;;;;4939026;29;20170;-88
2021/12/26 11:49:33;;;;;;;23.92;14.82;;;5.20;78.80;;;;;;4952723;29;20268;-87
2021/12/26 11:52:22;;;;;;;17.75;12.15;;;5.40;78.20;;;;;;4937781;29;20688;-88
2021/12/26 11:54:57;;;;;;;17.45;12.52;;;5.60;77.80;;;;;;4937841;29;20208;-88
2021/12/26 11:57:37;;;;;;;22.77;12.02;;;5.40;77.70;;;;;;4938816;29;20284;-88
2021/12/26 12:00:11;;;;;;;20.65;10.90;;;5.50;78.20;;;;;;4937644;29;20319;-88
2021/12/26 12:02:49;;;;;;;17.80;11.20;;;5.40;78.20;;;;;;4937069;29;20685;-88
2021/12/26 12:05:25;;;;;;;24.42;12.93;;;5.60;78.70;;;;;;4937001;29;20273;-88
2021/12/26 12:07:54;;;;;;;21.70;13.77;;;5.50;78.70;;;;;;4939806;29;20169;-88
2021/12/26 12:10:56;;;;;;;25.95;13.85;;;5.50;79.00;;;;;;4938674;29;20256;-88
2021/12/26 12:13:44;;;;;;;28.75;14.75;;;5.50;78.90;;;;;;4937241;29;20260;-88
2021/12/26 12:16:32;;;;;;;19.88;11.75;;;5.70;79.10;;;;;;4937483;29;20181;-88
2021/12/26 12:19:00;;;;;;;19.75;11.30;;;5.90;78.90;;;;;;4939005;29;20233;-88
2021/12/26 12:21:44;;;;;;;21.65;13.13;;;5.90;78.70;;;;;;4939126;29;20280;-88
2021/12/26 12:24:26;;;;;;;19.30;12.13;;;5.70;79.10;;;;;;4937215;29;20197;-88
2021/12/26 12:26:53;;;;;;;19.30;12.35;;;5.50;79.80;;;;;;4937270;29;20185;-87
2021/12/26 12:29:21;;;;;;;24.90;13.48;;;5.60;80.30;;;;;;4937694;29;20239;-87
2021/12/26 12:31:48;;;;;;;23.60;14.43;;;5.60;80.30;;;;;;4937583;29;20192;-87
2021/12/26 12:34:14;;;;;;;21.65;11.43;;;5.40;80.70;;;;;;4937882;29;20181;-88
2021/12/26 12:36:43;;;;;;;23.50;12.30;;;5.50;81.00;;;;;;4945552;29;20177;-87
2021/12/26 12:39:22;;;;;;;29.83;14.13;;;5.60;80.90;;;;;;4947366;28;20593;-87
2021/12/26 12:41:53;;;;;;;23.20;12.63;;;5.40;81.40;;;;;;4938226;29;20201;-87
2021/12/26 12:44:44;;;;;;;19.98;12.18;;;5.50;81.80;;;;;;4938818;29;20181;-87
2021/12/26 12:47:19;;;;;;;22.20;13.38;;;5.70;81.90;;;;;;4940286;29;20178;-87
2021/12/26 12:49:55;;;;;;;35.25;14.57;;;5.80;81.40;;;;;;4952872;29;20211;-87
2021/12/26 12:52:59;;;;;;;22.52;13.68;;;5.90;81.30;;;;;;4952918;29;20161;-87
2021/12/26 12:55:43;;;;;;;28.58;15.57;;;5.80;81.00;;;;;;4938448;29;20172;-88